Time;durP1;ratioP1;P1;durP2;ratioP2;P2;SDS_P1;SDS_P2;PMS_P1;PMS_P2;Temp;Humidity;BMP_temperature;BMP_pressure;BME280_temperature;BME280_humidity;BME280_pressure;Samples;Min_cycle;Max_cycle;Signal;HPM_P1;HPM_P2
2023/06/21 00:00:32;;;;;;;6.73;5.70;;;19.70;99.90;;;;;;5072029;28;20451;-91
2023/06/21 00:03:00;;;;;;;5.90;5.40;;;19.60;99.90;;;;;;5073309;28;20963;-91
2023/06/21 00:05:27;;;;;;;7.03;6.10;;;19.60;99.90;;;;;;5072838;28;20454;-92
2023/06/21 00:07:55;;;;;;;6.57;5.73;;;19.50;99.90;;;;;;5073425;28;20481;-92
2023/06/21 00:10:23;;;;;;;7.37;6.30;;;19.50;99.90;;;;;;5073185;28;20474;-91
2023/06/21 00:12:52;;;;;;;7.10;6.00;;;19.50;99.90;;;;;;5073229;28;20473;-91
2023/06/21 00:15:18;;;;;;;6.90;6.30;;;19.50;99.90;;;;;;5072973;28;20454;-91
2023/06/21 00:17:45;;;;;;;8.33;6.00;;;19.50;99.90;;;;;;5073229;28;20463;-91
2023/06/21 00:20:13;;;;;;;7.73;6.20;;;19.50;99.90;;;;;;5073190;28;20458;-91
2023/06/21 00:22:40;;;;;;;6.00;5.40;;;19.40;99.90;;;;;;5072950;28;20453;-91
2023/06/21 00:25:09;;;;;;;5.97;5.47;;;19.50;99.90;;;;;;5072848;28;20466;-91
2023/06/21 00:27:36;;;;;;;6.97;6.27;;;19.40;99.90;;;;;;5073234;28;20490;-91
2023/06/21 00:30:05;;;;;;;7.13;6.43;;;19.40;99.90;;;;;;5073001;28;20470;-91
2023/06/21 00:32:31;;;;;;;7.73;5.80;;;19.40;99.90;;;;;;5072970;28;20510;-91
2023/06/21 00:34:58;;;;;;;6.83;6.23;;;19.40;99.90;;;;;;5072286;28;20982;-92
2023/06/21 00:37:26;;;;;;;6.33;5.70;;;19.40;99.90;;;;;;5073010;28;20504;-90
2023/06/21 00:39:53;;;;;;;6.53;5.90;;;19.30;99.90;;;;;;5072821;28;20877;-91
2023/06/21 00:42:19;;;;;;;7.70;6.23;;;19.30;99.90;;;;;;5073420;28;20469;-90
2023/06/21 00:44:46;;;;;;;7.43;6.20;;;19.30;99.90;;;;;;5073454;28;20951;-91
2023/06/21 00:47:14;;;;;;;6.10;5.50;;;19.30;99.90;;;;;;5072777;28;21029;-91
2023/06/21 00:49:41;;;;;;;6.70;5.53;;;19.30;99.90;;;;;;5072871;28;20466;-91
2023/06/21 00:52:09;;;;;;;6.70;6.10;;;19.20;99.90;;;;;;5072750;28;20477;-91
2023/06/21 00:54:37;;;;;;;6.53;5.87;;;19.20;99.90;;;;;;5073530;28;20466;-91
2023/06/21 00:57:04;;;;;;;6.20;5.60;;;19.20;99.90;;;;;;5073791;28;20486;-91
2023/06/21 00:59:46;;;;;;;6.50;5.90;;;19.20;99.90;;;;;;5073408;28;20549;-91
2023/06/21 01:02:37;;;;;;;6.10;5.50;;;19.10;99.90;;;;;;5074368;28;20467;-91
2023/06/21 01:08:14;;;;;;;6.73;6.17;;;19.10;99.90;;;;;;5074426;28;20469;-91
2023/06/21 01:11:12;;;;;;;6.70;6.00;;;19.10;99.90;;;;;;5077340;28;20478;-91
2023/06/21 01:13:51;;;;;;;7.40;5.93;;;19.00;99.90;;;;;;5076746;28;20485;-91
2023/06/21 01:16:19;;;;;;;6.90;6.17;;;19.00;99.90;;;;;;5076762;28;20532;-91
2023/06/21 01:18:49;;;;;;;7.80;6.40;;;19.00;99.90;;;;;;5076676;28;20466;-91
2023/06/21 01:21:22;;;;;;;6.60;6.00;;;19.00;99.90;;;;;;5076715;28;20451;-92
2023/06/21 01:24:10;;;;;;;6.70;6.10;;;18.90;99.90;;;;;;5076619;28;20469;-91
2023/06/21 01:26:59;;;;;;;7.90;6.87;;;18.90;99.90;;;;;;5076239;28;20549;-92
2023/06/21 01:29:30;;;;;;;7.07;6.37;;;18.90;99.90;;;;;;5076354;28;20934;-92
2023/06/21 01:31:58;;;;;;;7.63;6.83;;;18.90;99.90;;;;;;5076444;28;20589;-92
2023/06/21 01:34:27;;;;;;;6.10;5.60;;;18.90;99.90;;;;;;5075956;28;20466;-91
2023/06/21 01:36:55;;;;;;;6.93;6.07;;;18.80;99.90;;;;;;5076042;28;20894;-91
2023/06/21 01:39:21;;;;;;;12.70;6.63;;;18.80;99.90;;;;;;5076042;28;20470;-91
2023/06/21 01:41:48;;;;;;;6.67;6.07;;;18.80;99.90;;;;;;5075985;28;20458;-92
2023/06/21 01:44:16;;;;;;;6.80;6.10;;;18.80;99.90;;;;;;5075751;28;20466;-91
2023/06/21 01:46:46;;;;;;;6.47;5.73;;;18.70;99.90;;;;;;5075725;28;20478;-91
2023/06/21 01:49:14;;;;;;;8.07;7.27;;;18.70;99.90;;;;;;5075870;28;20458;-91
2023/06/21 01:51:43;;;;;;;10.33;7.30;;;18.70;99.90;;;;;;5075747;28;21093;-91
2023/06/21 01:54:11;;;;;;;6.83;5.93;;;18.70;99.90;;;;;;5075760;28;20833;-91
2023/06/21 01:56:41;;;;;;;8.10;6.37;;;18.70;99.90;;;;;;5075480;28;20487;-91
2023/06/21 01:59:08;;;;;;;9.00;6.53;;;18.60;99.90;;;;;;5075965;28;20450;-92
2023/06/21 02:01:35;;;;;;;6.33;5.47;;;18.60;99.90;;;;;;5075733;28;20461;-91
2023/06/21 02:04:06;;;;;;;8.17;7.37;;;18.60;99.90;;;;;;5075458;28;20994;-92
2023/06/21 02:06:35;;;;;;;7.00;6.37;;;18.60;99.90;;;;;;5075418;28;20508;-91
2023/06/21 02:09:05;;;;;;;6.60;6.00;;;18.60;99.90;;;;;;5075702;28;20462;-91
2023/06/21 02:11:32;;;;;;;9.20;6.50;;;18.60;99.90;;;;;;5075364;28;20503;-91
2023/06/21 02:14:00;;;;;;;7.07;5.90;;;18.50;99.90;;;;;;5075210;28;20455;-91
2023/06/21 02:16:28;;;;;;;8.03;7.33;;;18.50;99.90;;;;;;5074997;28;20570;-92
2023/06/21 02:18:55;;;;;;;7.93;6.23;;;18.50;99.90;;;;;;5075526;28;20969;-92
2023/06/21 02:21:23;;;;;;;6.43;5.70;;;18.50;99.90;;;;;;5074976;28;20450;-91
2023/06/21 02:23:50;;;;;;;7.07;6.37;;;18.50;99.90;;;;;;5075347;28;20513;-91
2023/06/21 02:26:17;;;;;;;6.60;6.07;;;18.50;99.90;;;;;;5074950;28;20487;-91
2023/06/21 02:28:44;;;;;;;7.37;6.10;;;18.40;99.90;;;;;;5075077;28;20545;-91
2023/06/21 02:31:11;;;;;;;8.50;5.90;;;18.40;99.90;;;;;;5075153;28;20478;-91
2023/06/21 02:33:38;;;;;;;8.00;5.87;;;18.40;99.90;;;;;;5074963;28;20858;-92
2023/06/21 02:36:05;;;;;;;7.57;6.83;;;18.40;99.90;;;;;;5074390;28;20482;-91
2023/06/21 02:38:33;;;;;;;6.20;5.60;;;18.40;99.90;;;;;;5074856;28;20473;-91
2023/06/21 02:41:00;;;;;;;9.43;6.40;;;18.40;99.90;;;;;;5074906;28;20481;-91
2023/06/21 02:43:27;;;;;;;8.40;7.50;;;18.40;99.90;;;;;;5074355;28;20466;-91
2023/06/21 02:45:54;;;;;;;6.77;5.90;;;18.40;99.90;;;;;;5074519;28;20475;-91
2023/06/21 02:48:20;;;;;;;6.80;5.83;;;18.40;99.90;;;;;;5074516;28;20466;-91
2023/06/21 02:50:48;;;;;;;8.00;6.20;;;18.40;99.90;;;;;;5074725;28;20947;-91
2023/06/21 02:53:15;;;;;;;6.40;5.80;;;18.40;99.90;;;;;;5074104;28;20446;-91
2023/06/21 02:55:44;;;;;;;10.93;5.90;;;18.30;99.90;;;;;;5074179;28;20482;-92
2023/06/21 02:58:10;;;;;;;12.63;6.17;;;18.30;99.90;;;;;;5074599;28;20508;-91
2023/06/21 03:00:37;;;;;;;6.20;5.60;;;18.30;99.90;;;;;;5074360;28;20458;-91
2023/06/21 03:03:05;;;;;;;8.87;6.37;;;18.30;99.90;;;;;;5074504;28;20465;-91
2023/06/21 03:05:33;;;;;;;7.30;6.37;;;18.30;99.90;;;;;;5074175;28;20470;-90
2023/06/21 03:08:03;;;;;;;7.57;6.77;;;18.30;99.90;;;;;;5074416;28;20454;-91
2023/06/21 03:10:32;;;;;;;6.50;5.60;;;18.30;99.90;;;;;;5074273;28;20986;-91
2023/06/21 03:13:01;;;;;;;6.67;5.97;;;18.30;99.90;;;;;;5074282;28;20479;-91
2023/06/21 03:15:27;;;;;;;8.43;6.43;;;18.30;99.90;;;;;;5074307;28;20461;-91
2023/06/21 03:17:54;;;;;;;7.20;5.90;;;18.30;99.90;;;;;;5073949;28;20493;-91
2023/06/21 03:20:22;;;;;;;7.50;6.80;;;18.30;99.90;;;;;;5074192;28;20463;-91
2023/06/21 03:22:49;;;;;;;6.83;6.23;;;18.30;99.90;;;;;;5073998;28;20569;-91
2023/06/21 03:25:16;;;;;;;8.13;6.97;;;18.30;99.90;;;;;;5073331;28;20558;-91
2023/06/21 03:27:43;;;;;;;7.20;6.23;;;18.30;99.90;;;;;;5074071;28;20466;-91
2023/06/21 03:30:13;;;;;;;7.90;7.10;;;18.40;99.90;;;;;;5074597;28;20467;-91
2023/06/21 03:32:40;;;;;;;6.53;5.93;;;18.40;99.90;;;;;;5074223;28;21004;-90
2023/06/21 03:35:07;;;;;;;7.50;6.70;;;18.40;99.90;;;;;;5074728;28;20462;-90
2023/06/21 03:37:34;;;;;;;6.63;6.00;;;18.40;99.90;;;;;;5076179;28;20494;-91
2023/06/21 03:40:01;;;;;;;6.93;6.33;;;18.40;99.90;;;;;;5076466;28;20811;-91
2023/06/21 03:42:28;;;;;;;7.40;6.70;;;18.40;99.90;;;;;;5076738;28;20454;-90
2023/06/21 03:48:15;;;;;;;7.57;6.50;;;18.50;99.90;;;;;;5077185;28;20962;-91
2023/06/21 03:56:02;;;;;;;7.83;6.97;;;18.70;99.90;;;;;;5087392;22;20489;-90
2023/06/21 04:01:22;;;;;;;7.10;6.50;;;18.80;99.90;;;;;;5065424;28;20470;-89
2023/06/21 04:04:03;;;;;;;6.90;5.60;;;18.90;99.90;;;;;;5071629;28;20474;-91
2023/06/21 04:06:44;;;;;;;7.87;6.83;;;18.90;99.90;;;;;;5068428;28;20482;-90
2023/06/21 04:15:22;;;;;;;6.63;5.40;;;19.00;99.90;;;;;;5052673;28;20519;-91
2023/06/21 04:21:12;;;;;;;6.00;5.40;;;19.00;99.90;;;;;;4995574;28;20402;-91
2023/06/21 04:30:04;;;;;;;6.70;6.10;;;19.00;99.90;;;;;;5014743;28;20437;-92
2023/06/21 04:35:24;;;;;;;6.63;5.93;;;19.00;99.90;;;;;;5051988;28;20459;-91
2023/06/21 04:38:14;;;;;;;6.50;5.90;;;19.00;99.90;;;;;;5062448;28;20951;-94
2023/06/21 04:43:45;;;;;;;8.10;6.10;;;19.00;99.90;;;;;;5064773;28;20459;-93
2023/06/21 04:49:35;;;;;;;6.77;5.67;;;19.00;99.90;;;;;;5072925;28;20474;-93
2023/06/21 05:01:37;;;;;;;7.33;5.60;;;19.20;99.90;;;;;;5075193;28;20549;-93
2023/06/21 05:04:11;;;;;;;10.30;6.83;;;19.30;99.90;;;;;;5072704;28;20531;-94
2023/06/21 05:06:40;;;;;;;6.60;6.00;;;19.30;99.90;;;;;;5068166;28;20483;-93
2023/06/21 05:25:46;;;;;;;7.03;6.33;;;19.60;99.90;;;;;;5042659;28;20567;-91
2023/06/21 05:28:12;;;;;;;7.27;6.57;;;19.60;99.90;;;;;;5037081;28;20478;-91
2023/06/21 05:33:24;;;;;;;6.50;5.90;;;19.70;99.90;;;;;;5039187;28;21000;-92
2023/06/21 05:35:51;;;;;;;6.83;6.17;;;19.70;99.90;;;;;;5041406;28;20547;-93
2023/06/21 05:38:18;;;;;;;7.60;6.40;;;19.80;99.90;;;;;;5044622;28;20457;-93
2023/06/21 05:41:10;;;;;;;7.83;6.57;;;19.80;99.90;;;;;;5045040;28;20463;-91
2023/06/21 05:43:50;;;;;;;7.13;6.10;;;19.90;99.90;;;;;;5041264;28;20457;-92
2023/06/21 05:46:17;;;;;;;7.00;6.30;;;19.90;99.90;;;;;;5039256;28;20591;-92
2023/06/21 05:48:44;;;;;;;9.90;7.23;;;20.00;99.90;;;;;;5039817;28;21014;-91
2023/06/21 05:51:17;;;;;;;7.20;6.50;;;20.00;99.90;;;;;;5042278;28;20868;-91
2023/06/21 05:53:56;;;;;;;7.23;6.53;;;20.00;99.90;;;;;;5042970;28;20554;-91
2023/06/21 05:56:26;;;;;;;6.80;6.20;;;20.10;99.90;;;;;;5042092;28;20484;-91
2023/06/21 05:58:53;;;;;;;7.13;6.43;;;20.10;99.90;;;;;;5043219;28;20460;-90
2023/06/21 06:01:21;;;;;;;7.87;6.40;;;20.00;99.90;;;;;;5043251;28;20564;-91
2023/06/21 06:03:54;;;;;;;7.77;6.40;;;20.00;99.90;;;;;;5044333;28;20487;-92
2023/06/21 06:06:24;;;;;;;7.10;6.40;;;20.00;99.90;;;;;;5040969;28;20476;-91
2023/06/21 06:08:50;;;;;;;7.90;7.10;;;20.00;99.90;;;;;;5039196;28;20488;-91
2023/06/21 06:11:18;;;;;;;6.83;6.13;;;20.00;99.90;;;;;;5037825;28;20458;-91
2023/06/21 06:13:46;;;;;;;9.07;7.30;;;20.00;99.90;;;;;;5037949;28;20977;-91
2023/06/21 06:16:13;;;;;;;7.77;6.97;;;20.10;99.90;;;;;;5037679;28;20574;-91
2023/06/21 06:18:40;;;;;;;6.90;6.17;;;20.10;99.90;;;;;;5038694;28;20465;-91
2023/06/21 06:21:07;;;;;;;7.97;6.27;;;20.20;99.90;;;;;;5037813;28;20467;-91
2023/06/21 06:23:34;;;;;;;7.43;5.83;;;20.20;99.90;;;;;;5037889;28;20992;-91
2023/06/21 06:26:01;;;;;;;9.37;6.70;;;20.30;99.90;;;;;;5049483;28;20484;-91
2023/06/21 06:28:28;;;;;;;6.90;6.17;;;20.30;99.90;;;;;;5048321;28;20460;-91
2023/06/21 06:30:56;;;;;;;7.73;6.10;;;20.40;99.90;;;;;;5050782;28;20468;-91
2023/06/21 06:33:23;;;;;;;6.87;6.10;;;20.50;99.90;;;;;;5045162;28;20479;-91
2023/06/21 06:35:49;;;;;;;7.30;6.30;;;20.60;99.90;;;;;;5049036;28;20815;-91
2023/06/21 06:38:17;;;;;;;7.47;6.47;;;20.70;99.90;;;;;;5062740;28;20461;-91
2023/06/21 06:40:43;;;;;;;6.93;6.23;;;20.80;99.90;;;;;;5049888;28;20461;-91
2023/06/21 06:43:15;;;;;;;6.47;5.83;;;20.80;99.90;;;;;;5037774;28;20458;-92
2023/06/21 06:45:43;;;;;;;7.37;6.50;;;20.90;99.90;;;;;;5046391;28;20544;-90
2023/06/21 06:48:19;;;;;;;7.03;6.07;;;21.00;99.90;;;;;;5060025;28;20467;-91
2023/06/21 06:53:55;;;;;;;;;;;;;;;;;;;;;
2023/06/21 06:56:57;;;;;;;8.13;5.40;;;21.10;99.90;;;;;;5064429;28;20475;-93
2023/06/21 06:59:54;;;;;;;6.00;5.43;;;21.20;99.90;;;;;;5075154;28;20462;-95
2023/06/21 07:02:42;;;;;;;8.30;6.00;;;21.30;99.90;;;;;;5037889;28;20463;-93
2023/06/21 07:05:10;;;;;;;6.80;6.10;;;21.40;99.90;;;;;;5048518;22;20516;-72
2023/06/21 07:07:36;;;;;;;7.07;5.80;;;21.50;99.90;;;;;;5044478;28;20480;-72
2023/06/21 07:10:03;;;;;;;7.03;6.33;;;21.60;99.90;;;;;;5050240;28;20484;-72
2023/06/21 07:12:30;;;;;;;7.10;6.50;;;21.70;99.90;;;;;;5051082;28;20483;-72
2023/06/21 07:14:57;;;;;;;5.47;4.87;;;21.80;99.90;;;;;;5049829;28;20459;-72
2023/06/21 07:17:25;;;;;;;7.27;6.13;;;21.90;99.90;;;;;;5030887;28;20482;-72
2023/06/21 07:19:52;;;;;;;8.23;6.07;;;22.10;99.90;;;;;;5046922;28;21002;-73
2023/06/21 07:22:20;;;;;;;7.27;6.50;;;22.20;99.90;;;;;;5050261;28;20458;-73
2023/06/21 07:24:47;;;;;;;7.20;5.80;;;22.30;99.90;;;;;;5050629;28;20549;-73
2023/06/21 07:27:14;;;;;;;6.53;5.97;;;22.30;99.90;;;;;;5050461;28;20993;-72
2023/06/21 07:29:41;;;;;;;6.40;5.70;;;22.40;99.90;;;;;;5050396;28;20550;-72
2023/06/21 07:32:08;;;;;;;6.33;5.73;;;22.50;99.90;;;;;;5032069;28;20465;-73
2023/06/21 07:34:35;;;;;;;7.00;5.83;;;22.60;99.90;;;;;;5043217;28;20466;-72
2023/06/21 07:37:02;;;;;;;5.50;5.00;;;22.70;99.90;;;;;;5050077;28;20483;-72
2023/06/21 07:39:30;;;;;;;6.03;5.43;;;22.70;99.90;;;;;;5051167;28;20509;-72
2023/06/21 07:41:59;;;;;;;8.30;5.77;;;22.70;99.90;;;;;;5050842;28;20466;-72
2023/06/21 07:44:26;;;;;;;5.83;5.07;;;22.70;99.90;;;;;;5050183;28;20466;-72
2023/06/21 07:46:52;;;;;;;5.67;5.17;;;22.70;99.90;;;;;;5049903;28;20485;-72
2023/06/21 07:49:19;;;;;;;6.93;5.33;;;22.60;99.90;;;;;;5050761;28;20835;-72
2023/06/21 07:51:46;;;;;;;4.87;4.43;;;22.60;99.90;;;;;;5050170;28;20469;-72
2023/06/21 07:54:13;;;;;;;6.70;5.47;;;22.60;99.90;;;;;;5050237;28;20485;-72
2023/06/21 07:56:41;;;;;;;5.13;4.60;;;22.60;99.90;;;;;;5049558;28;20998;-72
2023/06/21 07:59:08;;;;;;;5.60;5.10;;;22.60;99.90;;;;;;5049710;28;20474;-72
2023/06/21 08:01:34;;;;;;;5.43;4.57;;;22.60;99.90;;;;;;5050189;28;20984;-72
2023/06/21 08:04:01;;;;;;;5.63;4.63;;;22.60;99.90;;;;;;5047997;28;20806;-72
2023/06/21 08:06:28;;;;;;;5.77;5.27;;;22.60;99.90;;;;;;5046924;28;20485;-72
2023/06/21 08:08:55;;;;;;;7.23;5.20;;;22.60;99.90;;;;;;5049536;28;20470;-72
2023/06/21 08:11:21;;;;;;;6.60;5.47;;;22.60;99.90;;;;;;5049590;28;20466;-72
2023/06/21 08:13:49;;;;;;;5.33;4.80;;;22.60;99.90;;;;;;5034620;28;20490;-72
2023/06/21 08:16:16;;;;;;;5.07;4.63;;;22.50;99.90;;;;;;5037736;28;20468;-72
2023/06/21 08:18:43;;;;;;;5.80;5.20;;;22.50;99.90;;;;;;5044515;28;20862;-72
2023/06/21 08:21:10;;;;;;;5.97;5.27;;;22.50;99.90;;;;;;5049467;28;20456;-72
2023/06/21 08:23:36;;;;;;;5.93;4.43;;;22.50;99.90;;;;;;5048979;28;20842;-72
2023/06/21 08:26:03;;;;;;;5.80;5.20;;;22.40;99.90;;;;;;5047826;28;20463;-72
2023/06/21 08:28:30;;;;;;;6.30;5.07;;;22.40;99.90;;;;;;5041284;28;20458;-72
2023/06/21 08:30:58;;;;;;;5.17;4.67;;;22.30;99.90;;;;;;5049424;28;20475;-72
2023/06/21 08:33:25;;;;;;;6.73;5.30;;;22.20;99.90;;;;;;5029954;28;20857;-72
2023/06/21 08:35:52;;;;;;;7.07;5.80;;;22.20;99.90;;;;;;5044070;28;20477;-72
2023/06/21 08:38:19;;;;;;;7.83;5.60;;;22.20;99.90;;;;;;5049767;28;20479;-72
2023/06/21 08:40:47;;;;;;;5.07;4.57;;;22.20;99.90;;;;;;5049558;28;20468;-72
2023/06/21 08:43:13;;;;;;;5.30;4.60;;;22.10;99.90;;;;;;5049915;28;20462;-72
2023/06/21 08:45:40;;;;;;;4.77;4.27;;;22.00;99.90;;;;;;5049273;28;20462;-72
2023/06/21 08:48:09;;;;;;;5.37;4.87;;;22.00;99.90;;;;;;5049840;28;20861;-72
2023/06/21 08:50:38;;;;;;;6.73;4.43;;;22.00;99.90;;;;;;5050078;28;20794;-72
2023/06/21 08:53:07;;;;;;;5.50;5.00;;;22.00;99.90;;;;;;5049527;28;20482;-71
2023/06/21 08:55:36;;;;;;;6.57;5.60;;;21.90;99.90;;;;;;5049745;28;20461;-72
2023/06/21 08:58:08;;;;;;;5.90;5.40;;;21.80;99.90;;;;;;5049718;28;20478;-72
2023/06/21 09:00:39;;;;;;;5.80;5.00;;;21.70;99.90;;;;;;5049771;28;20964;-72
2023/06/21 09:03:10;;;;;;;6.97;5.50;;;21.60;99.90;;;;;;5049678;28;20481;-72
2023/06/21 09:05:41;;;;;;;6.10;4.60;;;21.50;99.90;;;;;;5049023;28;20470;-72
2023/06/21 09:08:08;;;;;;;6.03;4.60;;;21.40;99.90;;;;;;5047737;28;20475;-73
2023/06/21 09:10:37;;;;;;;5.97;5.37;;;21.30;99.90;;;;;;5042945;28;20468;-72
2023/06/21 09:13:05;;;;;;;6.10;5.50;;;21.20;99.90;;;;;;5040449;28;20480;-72
2023/06/21 09:15:32;;;;;;;6.17;5.53;;;21.20;99.90;;;;;;5029152;28;20469;-72
2023/06/21 09:18:00;;;;;;;7.00;5.23;;;21.10;99.90;;;;;;5029603;28;20489;-72
2023/06/21 09:20:29;;;;;;;6.60;5.97;;;21.10;99.90;;;;;;5029581;28;20468;-72
2023/06/21 09:22:57;;;;;;;6.73;5.90;;;21.00;99.90;;;;;;5030456;28;21183;-72
2023/06/21 09:25:24;;;;;;;6.73;6.03;;;20.90;99.90;;;;;;5032875;28;20465;-72
2023/06/21 09:27:51;;;;;;;5.57;4.63;;;20.80;99.90;;;;;;5049034;28;20555;-72
2023/06/21 09:30:19;;;;;;;5.67;5.07;;;20.80;99.90;;;;;;5033414;28;20464;-72
2023/06/21 09:32:46;;;;;;;6.13;5.20;;;20.70;99.90;;;;;;5048212;28;20464;-72
2023/06/21 09:35:14;;;;;;;7.13;5.57;;;20.70;99.90;;;;;;5052997;28;20467;-73
2023/06/21 09:37:42;;;;;;;6.70;5.57;;;20.60;99.90;;;;;;5053178;28;20517;-72
2023/06/21 09:40:09;;;;;;;8.63;5.20;;;20.50;99.90;;;;;;5047508;28;20510;-72
2023/06/21 09:42:38;;;;;;;5.90;5.30;;;20.50;99.90;;;;;;5045058;28;20463;-72
2023/06/21 09:45:09;;;;;;;6.90;6.30;;;20.50;99.90;;;;;;5051766;28;20463;-72
2023/06/21 09:47:36;;;;;;;8.50;5.33;;;20.40;99.90;;;;;;5052618;28;20492;-72
2023/06/21 09:50:06;;;;;;;9.23;5.23;;;20.30;99.90;;;;;;5050440;28;20467;-72
2023/06/21 09:52:33;;;;;;;9.83;6.60;;;20.30;99.90;;;;;;5048100;28;20499;-72
2023/06/21 09:55:01;;;;;;;7.00;5.57;;;20.20;99.90;;;;;;5051698;28;20509;-72
2023/06/21 09:57:29;;;;;;;7.50;6.40;;;20.20;99.90;;;;;;5040436;28;20495;-72
2023/06/21 09:59:56;;;;;;;6.30;5.70;;;20.20;99.90;;;;;;5032928;28;20464;-72
2023/06/21 10:02:23;;;;;;;8.80;6.60;;;20.20;99.90;;;;;;5042286;28;20950;-72
2023/06/21 10:04:54;;;;;;;8.67;6.67;;;20.20;99.90;;;;;;5051578;28;20485;-72
2023/06/21 10:07:21;;;;;;;9.60;6.53;;;20.20;99.90;;;;;;5043557;28;20565;-72
2023/06/21 10:09:48;;;;;;;10.20;6.87;;;20.20;99.90;;;;;;5031902;28;20555;-72
2023/06/21 10:12:17;;;;;;;9.07;6.43;;;20.20;99.90;;;;;;5031742;28;20826;-72
2023/06/21 10:14:44;;;;;;;9.23;6.90;;;20.20;99.90;;;;;;5045642;28;20483;-72
2023/06/21 10:17:12;;;;;;;10.80;6.87;;;20.20;99.90;;;;;;5051492;28;20475;-72
2023/06/21 10:19:41;;;;;;;8.27;6.37;;;20.20;99.90;;;;;;5052282;28;20831;-72
2023/06/21 10:22:09;;;;;;;7.73;6.63;;;20.20;99.90;;;;;;5051133;28;20467;-72
2023/06/21 10:24:40;;;;;;;7.67;6.57;;;20.20;99.90;;;;;;5051443;28;20456;-72
2023/06/21 10:27:08;;;;;;;10.70;7.00;;;20.20;99.90;;;;;;5051314;28;20486;-72
2023/06/21 10:29:39;;;;;;;7.80;7.10;;;20.30;99.90;;;;;;5051757;28;20835;-73
2023/06/21 10:32:07;;;;;;;9.27;7.07;;;20.30;99.90;;;;;;5051661;28;20834;-72
2023/06/21 10:34:45;;;;;;;8.00;6.20;;;20.30;99.90;;;;;;5049189;28;20487;-72
2023/06/21 10:37:19;;;;;;;8.03;6.43;;;20.30;99.90;;;;;;5051453;28;20475;-72
2023/06/21 10:39:52;;;;;;;6.40;5.50;;;20.40;99.90;;;;;;5052051;28;20837;-73
2023/06/21 10:42:20;;;;;;;8.53;7.63;;;20.40;99.90;;;;;;5051382;28;20613;-72
2023/06/21 10:44:49;;;;;;;9.40;6.83;;;20.50;99.90;;;;;;5051326;28;20483;-73
2023/06/21 10:47:17;;;;;;;8.37;7.50;;;20.60;99.90;;;;;;5050268;28;20479;-72
2023/06/21 10:49:44;;;;;;;6.60;6.00;;;20.60;99.90;;;;;;5051868;28;20459;-72
2023/06/21 10:52:11;;;;;;;8.53;7.63;;;20.60;99.90;;;;;;5050923;28;20979;-72
2023/06/21 10:54:38;;;;;;;8.67;6.83;;;20.70;99.90;;;;;;5050966;28;20473;-72
2023/06/21 10:57:06;;;;;;;7.10;6.40;;;20.70;99.90;;;;;;5051273;28;20487;-72
2023/06/21 10:59:34;;;;;;;6.70;6.10;;;20.70;99.90;;;;;;5050378;28;21090;-72
2023/06/21 11:02:02;;;;;;;7.20;6.33;;;20.80;99.90;;;;;;5050882;28;20472;-73
2023/06/21 11:04:29;;;;;;;7.00;6.30;;;20.80;99.90;;;;;;5050530;28;20459;-72
2023/06/21 11:06:59;;;;;;;9.00;6.03;;;20.80;99.90;;;;;;5051124;28;20487;-72
2023/06/21 11:09:26;;;;;;;6.93;6.23;;;20.80;99.90;;;;;;5051111;28;20528;-72
2023/06/21 11:11:54;;;;;;;7.20;6.50;;;20.90;99.90;;;;;;5050813;28;20843;-72
2023/06/21 11:14:22;;;;;;;7.70;6.27;;;20.90;99.90;;;;;;5031057;28;20488;-72
2023/06/21 11:16:49;;;;;;;7.20;5.93;;;21.00;99.90;;;;;;5028891;28;20511;-72
2023/06/21 11:19:17;;;;;;;6.80;6.10;;;21.20;99.90;;;;;;5050868;28;20486;-73
2023/06/21 11:21:49;;;;;;;5.73;5.20;;;21.30;99.90;;;;;;5051052;28;20460;-73
2023/06/21 11:24:18;;;;;;;6.70;5.90;;;21.40;99.90;;;;;;5050266;28;20488;-72
2023/06/21 11:26:58;;;;;;;5.67;5.17;;;21.50;99.90;;;;;;5041906;28;20860;-72
2023/06/21 11:29:40;;;;;;;6.40;5.73;;;21.70;99.90;;;;;;5034642;28;20550;-72
2023/06/21 11:32:11;;;;;;;8.10;6.50;;;22.00;99.90;;;;;;5050578;28;20515;-72
2023/06/21 11:34:53;;;;;;;6.90;5.87;;;22.30;99.90;;;;;;5050126;28;20481;-72
2023/06/21 11:37:40;;;;;;;7.13;6.40;;;22.50;99.90;;;;;;5048140;28;20494;-72
2023/06/21 11:40:08;;;;;;;5.77;5.17;;;22.70;99.90;;;;;;5048918;28;20841;-72
2023/06/21 11:42:36;;;;;;;5.63;5.13;;;22.90;99.90;;;;;;5050503;28;20492;-72
2023/06/21 11:45:19;;;;;;;6.03;5.00;;;23.10;99.90;;;;;;5049891;28;20461;-72
2023/06/21 11:48:06;;;;;;;6.77;5.50;;;23.30;99.90;;;;;;5049359;28;20509;-72
2023/06/21 11:50:35;;;;;;;5.03;4.57;;;23.40;99.90;;;;;;5049653;28;20471;-72
2023/06/21 11:53:18;;;;;;;6.03;5.07;;;23.60;99.90;;;;;;5049991;28;20471;-72
2023/06/21 11:55:45;;;;;;;5.47;4.97;;;23.70;99.90;;;;;;5049354;28;20503;-72
2023/06/21 11:58:12;;;;;;;5.60;5.10;;;23.80;99.90;;;;;;5050066;28;20486;-72
2023/06/21 12:00:39;;;;;;;5.57;4.50;;;23.80;99.90;;;;;;5049808;28;20462;-72
2023/06/21 12:03:07;;;;;;;4.47;4.07;;;23.80;99.90;;;;;;5049539;28;20807;-73
2023/06/21 12:05:50;;;;;;;8.10;5.07;;;23.70;99.90;;;;;;5049461;28;20526;-72
2023/06/21 12:08:18;;;;;;;4.77;4.13;;;23.90;99.90;;;;;;5049810;28;20479;-72
2023/06/21 12:10:45;;;;;;;5.73;5.13;;;24.10;99.90;;;;;;5049907;28;20497;-72
2023/06/21 12:13:13;;;;;;;5.40;4.90;;;24.30;99.90;;;;;;5049406;28;20467;-72
2023/06/21 12:15:46;;;;;;;5.30;4.87;;;24.60;99.90;;;;;;5049495;28;20994;-72
2023/06/21 12:18:14;;;;;;;5.37;4.87;;;24.70;99.90;;;;;;5049507;28;20507;-72
2023/06/21 12:20:41;;;;;;;9.23;4.77;;;24.90;99.90;;;;;;5050033;28;20460;-72
2023/06/21 12:23:10;;;;;;;5.10;4.10;;;25.10;99.90;;;;;;5044168;28;20525;-72
2023/06/21 12:25:48;;;;;;;6.77;4.67;;;25.20;99.90;;;;;;5042722;28;20963;-72
2023/06/21 12:28:17;;;;;;;5.20;4.60;;;25.40;99.90;;;;;;5049841;28;20486;-72
2023/06/21 12:30:49;;;;;;;6.27;3.77;;;25.50;99.90;;;;;;5050305;28;20954;-72
2023/06/21 12:33:16;;;;;;;5.10;4.70;;;25.60;99.90;;;;;;5041599;28;20467;-72
2023/06/21 12:35:43;;;;;;;5.07;4.40;;;25.60;99.90;;;;;;5035179;28;20486;-72
2023/06/21 12:38:13;;;;;;;4.97;4.57;;;25.70;99.90;;;;;;5047214;28;20489;-72
2023/06/21 12:40:53;;;;;;;5.67;4.60;;;25.80;99.90;;;;;;5050088;28;20467;-72
2023/06/21 12:43:32;;;;;;;4.63;4.23;;;25.80;99.90;;;;;;5049123;28;20485;-72
2023/06/21 12:46:00;;;;;;;6.13;4.67;;;25.90;99.90;;;;;;5037080;28;20461;-72
2023/06/21 12:48:27;;;;;;;5.90;4.57;;;25.90;99.90;;;;;;5045756;28;20549;-71
2023/06/21 12:50:57;;;;;;;4.43;4.03;;;25.80;99.90;;;;;;5038765;28;20871;-72
2023/06/21 12:53:26;;;;;;;5.27;4.33;;;25.90;99.90;;;;;;5044953;28;20474;-70
2023/06/21 12:55:55;;;;;;;8.37;4.37;;;26.00;99.90;;;;;;5036767;28;20563;-73
2023/06/21 12:58:23;;;;;;;4.87;4.37;;;26.20;99.90;;;;;;5050550;28;21296;-70
2023/06/21 13:00:50;;;;;;;5.63;4.30;;;26.30;99.90;;;;;;5053611;28;20912;-70
2023/06/21 13:03:20;;;;;;;3.90;3.50;;;26.40;99.90;;;;;;5053188;28;20462;-69
2023/06/21 13:05:48;;;;;;;5.00;4.50;;;26.50;99.90;;;;;;5053009;28;20458;-72
2023/06/21 13:08:17;;;;;;;4.47;4.07;;;26.50;99.90;;;;;;5043049;28;20483;-71
2023/06/21 13:10:46;;;;;;;5.20;4.50;;;26.60;99.90;;;;;;5052967;28;20494;-70
2023/06/21 13:13:12;;;;;;;4.90;4.40;;;26.60;99.90;;;;;;5052465;28;20569;-71
2023/06/21 13:15:39;;;;;;;7.40;4.20;;;26.60;99.90;;;;;;5051237;28;20493;-70
2023/06/21 13:18:06;;;;;;;5.40;4.90;;;26.50;99.90;;;;;;5050995;28;20861;-71
2023/06/21 13:20:35;;;;;;;5.17;4.60;;;26.30;99.90;;;;;;5052564;28;20473;-71
2023/06/21 13:23:01;;;;;;;5.40;4.80;;;26.10;99.90;;;;;;5051216;28;20510;-71
2023/06/21 13:25:28;;;;;;;4.47;4.03;;;25.90;99.90;;;;;;5051927;28;20462;-73
2023/06/21 13:27:56;;;;;;;4.30;3.90;;;25.90;99.90;;;;;;5051600;28;20513;-71
2023/06/21 13:30:23;;;;;;;4.80;4.40;;;25.90;99.90;;;;;;5051676;28;20496;-71
2023/06/21 13:32:50;;;;;;;5.03;4.53;;;26.00;99.90;;;;;;5052181;28;20462;-70
2023/06/21 13:35:17;;;;;;;4.77;4.37;;;26.00;99.90;;;;;;5051190;28;20495;-71
2023/06/21 13:37:43;;;;;;;4.57;4.17;;;25.90;99.90;;;;;;5037338;28;20480;-71
2023/06/21 13:40:11;;;;;;;4.73;4.33;;;25.90;99.90;;;;;;5049932;28;20459;-71
2023/06/21 13:42:38;;;;;;;4.80;4.40;;;26.10;99.90;;;;;;5051982;28;20851;-71
2023/06/21 13:45:07;;;;;;;4.53;4.07;;;26.20;99.90;;;;;;5050544;28;20470;-71
2023/06/21 13:47:33;;;;;;;6.80;4.63;;;26.20;99.90;;;;;;5051812;28;20476;-73
2023/06/21 13:50:04;;;;;;;6.30;4.33;;;26.20;99.90;;;;;;5051510;28;20474;-73
2023/06/21 13:52:33;;;;;;;5.00;4.50;;;26.10;99.90;;;;;;5051562;28;20508;-73
2023/06/21 13:54:59;;;;;;;4.37;3.90;;;26.00;99.90;;;;;;5050457;28;21145;-73
2023/06/21 13:57:26;;;;;;;5.53;4.17;;;25.90;99.90;;;;;;5051488;28;20486;-73
2023/06/21 13:59:54;;;;;;;5.00;4.50;;;25.80;99.90;;;;;;5050899;28;20469;-73
2023/06/21 14:02:22;;;;;;;4.63;4.23;;;26.00;99.90;;;;;;5051099;28;20459;-73
2023/06/21 14:04:50;;;;;;;5.80;4.60;;;26.10;99.90;;;;;;5050426;28;20568;-73
2023/06/21 14:07:17;;;;;;;5.53;4.93;;;26.10;99.90;;;;;;5050356;28;20518;-73
2023/06/21 14:09:44;;;;;;;5.07;4.33;;;26.20;99.90;;;;;;5050694;28;20471;-73